sensor_id;sensor_type;location;lat;lon;timestamp;P1;durP1;ratioP1;P2;durP2;ratioP2
71462;SDS011;59266;52.608;13.260;2023-06-22T00:00:14;18.73;;;11.65;;
71462;SDS011;59266;52.608;13.260;2023-06-22T00:02:41;20.05;;;12.18;;
71462;SDS011;59266;52.608;13.260;2023-06-22T00:05:08;23.80;;;13.02;;
71462;SDS011;59266;52.608;13.260;2023-06-22T00:07:35;20.20;;;11.90;;
71462;SDS011;59266;52.608;13.260;2023-06-22T00:10:02;19.42;;;11.80;;
71462;SDS011;59266;52.608;13.260;2023-06-22T00:12:30;18.05;;;11.27;;
71462;SDS011;59266;52.608;13.260;2023-06-22T00:14:56;22.02;;;11.55;;
71462;SDS011;59266;52.608;13.260;2023-06-22T00:17:23;18.08;;;11.13;;
71462;SDS011;59266;52.608;13.260;2023-06-22T00:19:50;19.75;;;12.00;;
71462;SDS011;59266;52.608;13.260;2023-06-22T00:22:20;18.85;;;11.57;;
71462;SDS011;59266;52.608;13.260;2023-06-22T00:24:55;28.23;;;12.77;;
71462;SDS011;59266;52.608;13.260;2023-06-22T00:27:22;21.40;;;12.20;;
71462;SDS011;59266;52.608;13.260;2023-06-22T00:29:55;18.58;;;11.80;;
71462;SDS011;59266;52.608;13.260;2023-06-22T00:32:23;20.35;;;11.48;;
71462;SDS011;59266;52.608;13.260;2023-06-22T00:34:51;18.48;;;11.20;;
71462;SDS011;59266;52.608;13.260;2023-06-22T00:37:17;22.38;;;12.73;;
71462;SDS011;59266;52.608;13.260;2023-06-22T00:39:45;21.48;;;11.70;;
71462;SDS011;59266;52.608;13.260;2023-06-22T00:42:11;22.10;;;11.60;;
71462;SDS011;59266;52.608;13.260;2023-06-22T00:44:38;21.60;;;11.98;;
71462;SDS011;59266;52.608;13.260;2023-06-22T00:47:05;18.63;;;10.68;;
71462;SDS011;59266;52.608;13.260;2023-06-22T00:49:34;23.27;;;12.57;;
71462;SDS011;59266;52.608;13.260;2023-06-22T00:52:03;18.45;;;11.70;;
71462;SDS011;59266;52.608;13.260;2023-06-22T00:54:30;17.67;;;10.82;;
71462;SDS011;59266;52.608;13.260;2023-06-22T00:56:57;15.57;;;10.40;;
71462;SDS011;59266;52.608;13.260;2023-06-22T00:59:26;18.17;;;10.48;;
71462;SDS011;59266;52.608;13.260;2023-06-22T01:01:55;17.48;;;11.02;;
71462;SDS011;59266;52.608;13.260;2023-06-22T01:04:24;20.48;;;11.13;;
71462;SDS011;59266;52.608;13.260;2023-06-22T01:10:07;19.65;;;11.13;;
71462;SDS011;59266;52.608;13.260;2023-06-22T01:12:45;20.30;;;11.07;;
71462;SDS011;59266;52.608;13.260;2023-06-22T01:15:28;18.88;;;11.40;;
71462;SDS011;59266;52.608;13.260;2023-06-22T01:17:59;18.23;;;10.45;;
71462;SDS011;59266;52.608;13.260;2023-06-22T01:20:30;16.63;;;10.68;;
71462;SDS011;59266;52.608;13.260;2023-06-22T01:25:36;16.15;;;9.98;;
71462;SDS011;59266;52.608;13.260;2023-06-22T01:28:17;21.27;;;10.90;;
71462;SDS011;59266;52.608;13.260;2023-06-22T01:30:52;16.75;;;10.00;;
71462;SDS011;59266;52.608;13.260;2023-06-22T01:33:31;20.75;;;10.57;;
71462;SDS011;59266;52.608;13.260;2023-06-22T01:36:02;19.85;;;10.32;;
71462;SDS011;59266;52.608;13.260;2023-06-22T01:38:30;17.70;;;10.32;;
71462;SDS011;59266;52.608;13.260;2023-06-22T01:40:57;20.10;;;10.90;;
71462;SDS011;59266;52.608;13.260;2023-06-22T01:43:26;20.73;;;10.93;;
71462;SDS011;59266;52.608;13.260;2023-06-22T01:45:54;22.33;;;10.82;;
71462;SDS011;59266;52.608;13.260;2023-06-22T01:48:22;17.67;;;10.57;;
71462;SDS011;59266;52.608;13.260;2023-06-22T01:50:49;18.92;;;10.48;;
71462;SDS011;59266;52.608;13.260;2023-06-22T01:53:17;20.08;;;11.80;;
71462;SDS011;59266;52.608;13.260;2023-06-22T01:55:44;17.58;;;9.65;;
71462;SDS011;59266;52.608;13.260;2023-06-22T01:58:13;17.88;;;10.55;;
71462;SDS011;59266;52.608;13.260;2023-06-22T02:00:41;18.55;;;11.50;;
71462;SDS011;59266;52.608;13.260;2023-06-22T02:03:14;19.17;;;10.73;;
71462;SDS011;59266;52.608;13.260;2023-06-22T02:08:35;21.25;;;11.60;;
71462;SDS011;59266;52.608;13.260;2023-06-22T02:11:09;18.02;;;10.57;;
71462;SDS011;59266;52.608;13.260;2023-06-22T02:13:44;20.02;;;10.10;;
71462;SDS011;59266;52.608;13.260;2023-06-22T02:16:12;17.20;;;10.10;;
71462;SDS011;59266;52.608;13.260;2023-06-22T02:18:47;19.25;;;12.05;;
71462;SDS011;59266;52.608;13.260;2023-06-22T02:21:17;18.25;;;11.05;;
71462;SDS011;59266;52.608;13.260;2023-06-22T02:23:45;20.90;;;11.57;;
71462;SDS011;59266;52.608;13.260;2023-06-22T02:26:16;20.73;;;11.98;;
71462;SDS011;59266;52.608;13.260;2023-06-22T02:28:45;18.77;;;10.15;;
71462;SDS011;59266;52.608;13.260;2023-06-22T02:31:12;17.98;;;10.68;;
71462;SDS011;59266;52.608;13.260;2023-06-22T02:33:39;23.33;;;11.23;;
71462;SDS011;59266;52.608;13.260;2023-06-22T02:36:05;18.23;;;11.35;;
71462;SDS011;59266;52.608;13.260;2023-06-22T02:38:35;21.17;;;11.60;;
71462;SDS011;59266;52.608;13.260;2023-06-22T02:41:04;18.77;;;10.95;;
71462;SDS011;59266;52.608;13.260;2023-06-22T02:43:40;22.88;;;11.75;;
71462;SDS011;59266;52.608;13.260;2023-06-22T02:46:09;19.83;;;10.98;;
71462;SDS011;59266;52.608;13.260;2023-06-22T02:48:36;20.05;;;11.10;;
71462;SDS011;59266;52.608;13.260;2023-06-22T02:51:02;22.45;;;11.15;;
71462;SDS011;59266;52.608;13.260;2023-06-22T02:53:29;17.27;;;10.50;;
71462;SDS011;59266;52.608;13.260;2023-06-22T02:56:03;18.70;;;9.98;;
71462;SDS011;59266;52.608;13.260;2023-06-22T02:58:33;17.60;;;10.75;;
71462;SDS011;59266;52.608;13.260;2023-06-22T03:01:05;17.38;;;11.15;;
71462;SDS011;59266;52.608;13.260;2023-06-22T03:03:32;19.42;;;11.57;;
71462;SDS011;59266;52.608;13.260;2023-06-22T03:05:59;19.85;;;10.88;;
71462;SDS011;59266;52.608;13.260;2023-06-22T03:08:29;19.38;;;11.88;;
71462;SDS011;59266;52.608;13.260;2023-06-22T03:10:57;21.08;;;11.45;;
71462;SDS011;59266;52.608;13.260;2023-06-22T03:13:24;17.10;;;10.63;;
71462;SDS011;59266;52.608;13.260;2023-06-22T03:15:51;18.13;;;11.10;;
71462;SDS011;59266;52.608;13.260;2023-06-22T03:18:19;21.13;;;11.98;;
71462;SDS011;59266;52.608;13.260;2023-06-22T03:20:48;19.67;;;11.63;;
71462;SDS011;59266;52.608;13.260;2023-06-22T03:23:17;17.92;;;11.05;;
71462;SDS011;59266;52.608;13.260;2023-06-22T03:25:44;19.40;;;11.13;;
71462;SDS011;59266;52.608;13.260;2023-06-22T03:28:11;18.23;;;10.68;;
71462;SDS011;59266;52.608;13.260;2023-06-22T03:30:38;21.95;;;11.38;;
71462;SDS011;59266;52.608;13.260;2023-06-22T03:33:08;19.98;;;11.48;;
71462;SDS011;59266;52.608;13.260;2023-06-22T03:35:35;21.73;;;10.40;;
71462;SDS011;59266;52.608;13.260;2023-06-22T03:38:04;17.27;;;10.50;;
71462;SDS011;59266;52.608;13.260;2023-06-22T03:40:31;19.65;;;10.98;;
71462;SDS011;59266;52.608;13.260;2023-06-22T03:42:58;21.85;;;12.65;;
71462;SDS011;59266;52.608;13.260;2023-06-22T03:45:25;19.10;;;11.75;;
71462;SDS011;59266;52.608;13.260;2023-06-22T03:47:54;31.17;;;14.15;;
71462;SDS011;59266;52.608;13.260;2023-06-22T03:50:20;21.80;;;12.50;;
71462;SDS011;59266;52.608;13.260;2023-06-22T03:52:48;21.15;;;12.48;;
71462;SDS011;59266;52.608;13.260;2023-06-22T03:55:15;20.27;;;12.15;;
71462;SDS011;59266;52.608;13.260;2023-06-22T03:57:42;17.83;;;11.48;;
71462;SDS011;59266;52.608;13.260;2023-06-22T04:00:09;19.92;;;11.23;;
71462;SDS011;59266;52.608;13.260;2023-06-22T04:02:36;23.52;;;12.85;;
71462;SDS011;59266;52.608;13.260;2023-06-22T04:05:03;19.65;;;12.02;;
71462;SDS011;59266;52.608;13.260;2023-06-22T04:07:30;19.63;;;12.05;;
71462;SDS011;59266;52.608;13.260;2023-06-22T04:09:57;21.58;;;12.85;;
71462;SDS011;59266;52.608;13.260;2023-06-22T04:12:24;20.23;;;12.50;;
71462;SDS011;59266;52.608;13.260;2023-06-22T04:14:50;19.17;;;11.73;;
71462;SDS011;59266;52.608;13.260;2023-06-22T04:17:19;19.00;;;11.43;;
71462;SDS011;59266;52.608;13.260;2023-06-22T04:19:46;17.15;;;10.25;;
71462;SDS011;59266;52.608;13.260;2023-06-22T04:22:15;19.42;;;11.48;;
71462;SDS011;59266;52.608;13.260;2023-06-22T04:24:44;16.45;;;11.48;;
71462;SDS011;59266;52.608;13.260;2023-06-22T04:27:10;17.73;;;11.07;;
71462;SDS011;59266;52.608;13.260;2023-06-22T04:29:38;21.48;;;11.15;;
71462;SDS011;59266;52.608;13.260;2023-06-22T04:32:15;18.90;;;11.20;;
71462;SDS011;59266;52.608;13.260;2023-06-22T04:34:43;18.45;;;10.68;;
71462;SDS011;59266;52.608;13.260;2023-06-22T04:37:09;20.67;;;10.60;;
71462;SDS011;59266;52.608;13.260;2023-06-22T04:39:42;18.02;;;9.88;;
71462;SDS011;59266;52.608;13.260;2023-06-22T04:42:11;15.63;;;9.43;;
71462;SDS011;59266;52.608;13.260;2023-06-22T04:44:39;17.02;;;9.77;;
71462;SDS011;59266;52.608;13.260;2023-06-22T04:47:08;14.77;;;9.30;;
71462;SDS011;59266;52.608;13.260;2023-06-22T04:49:36;16.85;;;9.40;;
71462;SDS011;59266;52.608;13.260;2023-06-22T04:52:06;19.20;;;11.02;;
71462;SDS011;59266;52.608;13.260;2023-06-22T04:54:35;15.80;;;10.02;;
71462;SDS011;59266;52.608;13.260;2023-06-22T04:57:03;15.38;;;9.70;;
71462;SDS011;59266;52.608;13.260;2023-06-22T04:59:38;17.05;;;9.90;;
71462;SDS011;59266;52.608;13.260;2023-06-22T05:02:08;15.07;;;9.27;;
71462;SDS011;59266;52.608;13.260;2023-06-22T05:04:35;18.60;;;9.75;;
71462;SDS011;59266;52.608;13.260;2023-06-22T05:07:06;14.90;;;8.48;;
71462;SDS011;59266;52.608;13.260;2023-06-22T05:09:33;16.08;;;8.60;;
71462;SDS011;59266;52.608;13.260;2023-06-22T05:12:01;14.48;;;8.60;;
71462;SDS011;59266;52.608;13.260;2023-06-22T05:14:36;16.63;;;8.57;;
71462;SDS011;59266;52.608;13.260;2023-06-22T05:17:03;11.75;;;7.97;;
71462;SDS011;59266;52.608;13.260;2023-06-22T05:19:31;15.27;;;8.60;;
71462;SDS011;59266;52.608;13.260;2023-06-22T05:22:01;15.75;;;8.00;;
71462;SDS011;59266;52.608;13.260;2023-06-22T05:24:30;15.60;;;8.55;;
71462;SDS011;59266;52.608;13.260;2023-06-22T05:26:58;19.00;;;8.40;;
71462;SDS011;59266;52.608;13.260;2023-06-22T05:29:25;14.57;;;8.52;;
71462;SDS011;59266;52.608;13.260;2023-06-22T05:31:55;14.20;;;7.85;;
71462;SDS011;59266;52.608;13.260;2023-06-22T05:34:22;13.40;;;7.65;;
71462;SDS011;59266;52.608;13.260;2023-06-22T05:36:49;13.43;;;7.93;;
71462;SDS011;59266;52.608;13.260;2023-06-22T05:39:16;10.68;;;7.18;;
71462;SDS011;59266;52.608;13.260;2023-06-22T05:41:45;14.65;;;8.02;;
71462;SDS011;59266;52.608;13.260;2023-06-22T05:44:13;17.45;;;7.10;;
71462;SDS011;59266;52.608;13.260;2023-06-22T05:46:43;14.10;;;6.47;;
71462;SDS011;59266;52.608;13.260;2023-06-22T05:49:12;12.82;;;7.57;;
71462;SDS011;59266;52.608;13.260;2023-06-22T05:51:43;11.88;;;5.85;;
71462;SDS011;59266;52.608;13.260;2023-06-22T05:54:10;9.98;;;5.10;;
71462;SDS011;59266;52.608;13.260;2023-06-22T05:56:42;10.00;;;4.93;;
71462;SDS011;59266;52.608;13.260;2023-06-22T05:59:10;8.40;;;4.30;;
71462;SDS011;59266;52.608;13.260;2023-06-22T06:01:37;8.50;;;4.00;;
71462;SDS011;59266;52.608;13.260;2023-06-22T06:04:04;8.50;;;4.63;;
71462;SDS011;59266;52.608;13.260;2023-06-22T06:06:31;8.63;;;4.60;;
71462;SDS011;59266;52.608;13.260;2023-06-22T06:09:01;9.25;;;4.22;;
71462;SDS011;59266;52.608;13.260;2023-06-22T06:11:30;10.52;;;4.00;;
71462;SDS011;59266;52.608;13.260;2023-06-22T06:13:57;11.02;;;3.90;;
71462;SDS011;59266;52.608;13.260;2023-06-22T06:16:26;7.65;;;3.60;;
71462;SDS011;59266;52.608;13.260;2023-06-22T06:18:54;7.25;;;3.65;;
71462;SDS011;59266;52.608;13.260;2023-06-22T06:21:22;7.03;;;3.20;;
71462;SDS011;59266;52.608;13.260;2023-06-22T06:23:49;7.15;;;3.20;;
71462;SDS011;59266;52.608;13.260;2023-06-22T06:26:21;10.68;;;3.60;;
71462;SDS011;59266;52.608;13.260;2023-06-22T06:29:04;6.95;;;2.95;;
71462;SDS011;59266;52.608;13.260;2023-06-22T06:31:31;6.50;;;2.83;;
71462;SDS011;59266;52.608;13.260;2023-06-22T06:34:00;7.80;;;3.10;;
71462;SDS011;59266;52.608;13.260;2023-06-22T06:36:50;7.10;;;2.78;;
71462;SDS011;59266;52.608;13.260;2023-06-22T06:39:20;7.22;;;2.92;;
71462;SDS011;59266;52.608;13.260;2023-06-22T06:44:23;8.18;;;2.95;;
71462;SDS011;59266;52.608;13.260;2023-06-22T06:46:53;9.55;;;3.08;;
71462;SDS011;59266;52.608;13.260;2023-06-22T06:49:31;6.25;;;2.17;;
71462;SDS011;59266;52.608;13.260;2023-06-22T06:51:57;7.20;;;2.80;;
71462;SDS011;59266;52.608;13.260;2023-06-22T06:54:24;6.10;;;2.38;;
71462;SDS011;59266;52.608;13.260;2023-06-22T06:56:51;8.13;;;2.85;;
71462;SDS011;59266;52.608;13.260;2023-06-22T06:59:19;6.75;;;2.50;;
71462;SDS011;59266;52.608;13.260;2023-06-22T07:01:46;9.05;;;2.53;;
71462;SDS011;59266;52.608;13.260;2023-06-22T07:04:15;8.43;;;2.60;;
71462;SDS011;59266;52.608;13.260;2023-06-22T07:06:44;7.53;;;2.80;;
71462;SDS011;59266;52.608;13.260;2023-06-22T07:09:13;6.32;;;2.60;;
71462;SDS011;59266;52.608;13.260;2023-06-22T07:11:45;9.30;;;2.75;;
71462;SDS011;59266;52.608;13.260;2023-06-22T07:14:13;12.38;;;2.80;;
71462;SDS011;59266;52.608;13.260;2023-06-22T07:16:40;6.35;;;2.97;;
71462;SDS011;59266;52.608;13.260;2023-06-22T07:19:11;6.28;;;2.85;;
71462;SDS011;59266;52.608;13.260;2023-06-22T07:21:41;6.50;;;2.80;;
71462;SDS011;59266;52.608;13.260;2023-06-22T07:24:09;7.32;;;2.83;;
71462;SDS011;59266;52.608;13.260;2023-06-22T07:26:35;6.22;;;2.80;;
71462;SDS011;59266;52.608;13.260;2023-06-22T07:29:02;6.55;;;2.80;;
71462;SDS011;59266;52.608;13.260;2023-06-22T07:31:29;8.77;;;2.90;;
71462;SDS011;59266;52.608;13.260;2023-06-22T07:33:57;8.63;;;2.67;;
71462;SDS011;59266;52.608;13.260;2023-06-22T07:36:25;8.00;;;3.22;;
71462;SDS011;59266;52.608;13.260;2023-06-22T07:38:52;6.32;;;2.90;;
71462;SDS011;59266;52.608;13.260;2023-06-22T07:41:20;6.40;;;2.78;;
71462;SDS011;59266;52.608;13.260;2023-06-22T07:43:47;8.80;;;2.92;;
71462;SDS011;59266;52.608;13.260;2023-06-22T07:46:19;5.85;;;2.80;;
71462;SDS011;59266;52.608;13.260;2023-06-22T07:48:47;6.97;;;2.80;;
71462;SDS011;59266;52.608;13.260;2023-06-22T07:51:14;5.78;;;2.40;;
71462;SDS011;59266;52.608;13.260;2023-06-22T07:53:42;9.52;;;2.58;;
71462;SDS011;59266;52.608;13.260;2023-06-22T07:56:12;6.80;;;2.80;;
71462;SDS011;59266;52.608;13.260;2023-06-22T07:58:39;9.75;;;3.00;;
71462;SDS011;59266;52.608;13.260;2023-06-22T08:01:07;6.00;;;2.90;;
71462;SDS011;59266;52.608;13.260;2023-06-22T08:03:36;5.68;;;2.67;;
71462;SDS011;59266;52.608;13.260;2023-06-22T08:06:03;7.60;;;2.80;;
71462;SDS011;59266;52.608;13.260;2023-06-22T08:08:30;6.93;;;2.90;;
71462;SDS011;59266;52.608;13.260;2023-06-22T08:10:56;6.93;;;2.60;;
71462;SDS011;59266;52.608;13.260;2023-06-22T08:13:23;7.35;;;2.65;;
71462;SDS011;59266;52.608;13.260;2023-06-22T08:15:51;7.05;;;2.63;;
71462;SDS011;59266;52.608;13.260;2023-06-22T08:18:20;7.13;;;2.88;;
71462;SDS011;59266;52.608;13.260;2023-06-22T08:20:47;5.40;;;2.38;;
71462;SDS011;59266;52.608;13.260;2023-06-22T08:23:14;8.02;;;2.33;;
71462;SDS011;59266;52.608;13.260;2023-06-22T08:25:42;5.65;;;2.38;;
71462;SDS011;59266;52.608;13.260;2023-06-22T08:28:09;6.20;;;2.58;;
71462;SDS011;59266;52.608;13.260;2023-06-22T08:30:36;6.57;;;2.63;;
71462;SDS011;59266;52.608;13.260;2023-06-22T08:33:03;7.32;;;2.63;;
71462;SDS011;59266;52.608;13.260;2023-06-22T08:35:30;6.65;;;2.60;;
71462;SDS011;59266;52.608;13.260;2023-06-22T08:37:57;6.40;;;2.83;;
71462;SDS011;59266;52.608;13.260;2023-06-22T08:40:24;6.45;;;2.95;;
71462;SDS011;59266;52.608;13.260;2023-06-22T08:42:52;13.48;;;3.00;;
71462;SDS011;59266;52.608;13.260;2023-06-22T08:45:21;10.00;;;2.45;;
71462;SDS011;59266;52.608;13.260;2023-06-22T08:47:53;8.10;;;3.08;;
71462;SDS011;59266;52.608;13.260;2023-06-22T08:50:21;6.63;;;2.80;;
71462;SDS011;59266;52.608;13.260;2023-06-22T08:52:48;7.47;;;2.40;;
71462;SDS011;59266;52.608;13.260;2023-06-22T08:55:15;7.75;;;3.05;;
71462;SDS011;59266;52.608;13.260;2023-06-22T08:57:43;6.25;;;2.47;;
71462;SDS011;59266;52.608;13.260;2023-06-22T09:00:10;7.10;;;2.45;;
71462;SDS011;59266;52.608;13.260;2023-06-22T09:02:44;7.93;;;2.50;;
71462;SDS011;59266;52.608;13.260;2023-06-22T09:05:12;7.10;;;2.50;;
71462;SDS011;59266;52.608;13.260;2023-06-22T09:07:39;6.35;;;2.50;;
71462;SDS011;59266;52.608;13.260;2023-06-22T09:10:07;5.32;;;2.38;;
71462;SDS011;59266;52.608;13.260;2023-06-22T09:12:34;6.80;;;2.33;;
71462;SDS011;59266;52.608;13.260;2023-06-22T09:15:04;5.95;;;2.03;;
71462;SDS011;59266;52.608;13.260;2023-06-22T09:17:40;6.65;;;2.10;;
71462;SDS011;59266;52.608;13.260;2023-06-22T09:20:09;6.47;;;2.30;;
71462;SDS011;59266;52.608;13.260;2023-06-22T09:22:37;6.22;;;2.40;;
71462;SDS011;59266;52.608;13.260;2023-06-22T09:25:04;5.38;;;2.30;;
71462;SDS011;59266;52.608;13.260;2023-06-22T09:27:33;7.43;;;2.58;;
71462;SDS011;59266;52.608;13.260;2023-06-22T09:29:59;5.55;;;2.35;;
71462;SDS011;59266;52.608;13.260;2023-06-22T09:32:27;5.85;;;2.22;;
71462;SDS011;59266;52.608;13.260;2023-06-22T09:34:56;5.75;;;2.20;;
71462;SDS011;59266;52.608;13.260;2023-06-22T09:37:23;8.05;;;2.55;;
71462;SDS011;59266;52.608;13.260;2023-06-22T09:39:51;6.72;;;2.30;;
71462;SDS011;59266;52.608;13.260;2023-06-22T09:42:18;7.53;;;2.60;;
71462;SDS011;59266;52.608;13.260;2023-06-22T09:44:45;17.20;;;2.70;;
71462;SDS011;59266;52.608;13.260;2023-06-22T09:47:14;5.40;;;2.35;;
71462;SDS011;59266;52.608;13.260;2023-06-22T09:49:41;9.05;;;2.70;;
71462;SDS011;59266;52.608;13.260;2023-06-22T09:52:15;8.60;;;2.70;;
71462;SDS011;59266;52.608;13.260;2023-06-22T09:54:42;5.50;;;2.78;;
71462;SDS011;59266;52.608;13.260;2023-06-22T09:57:09;8.25;;;2.78;;
71462;SDS011;59266;52.608;13.260;2023-06-22T09:59:36;7.15;;;2.85;;
71462;SDS011;59266;52.608;13.260;2023-06-22T10:02:06;9.55;;;3.22;;
71462;SDS011;59266;52.608;13.260;2023-06-22T10:04:34;9.75;;;2.90;;
71462;SDS011;59266;52.608;13.260;2023-06-22T10:07:01;6.43;;;2.83;;
71462;SDS011;59266;52.608;13.260;2023-06-22T10:09:29;5.00;;;2.50;;
71462;SDS011;59266;52.608;13.260;2023-06-22T10:11:56;6.80;;;2.80;;
71462;SDS011;59266;52.608;13.260;2023-06-22T10:14:22;6.82;;;2.90;;
71462;SDS011;59266;52.608;13.260;2023-06-22T10:16:51;10.55;;;3.40;;
71462;SDS011;59266;52.608;13.260;2023-06-22T10:19:18;6.20;;;2.90;;
71462;SDS011;59266;52.608;13.260;2023-06-22T10:21:47;7.22;;;3.10;;
71462;SDS011;59266;52.608;13.260;2023-06-22T10:24:13;6.60;;;2.83;;
71462;SDS011;59266;52.608;13.260;2023-06-22T10:26:40;7.68;;;3.30;;
71462;SDS011;59266;52.608;13.260;2023-06-22T10:29:07;5.85;;;3.00;;
71462;SDS011;59266;52.608;13.260;2023-06-22T10:31:37;7.78;;;3.42;;
71462;SDS011;59266;52.608;13.260;2023-06-22T10:34:04;6.68;;;3.38;;
71462;SDS011;59266;52.608;13.260;2023-06-22T10:36:31;7.68;;;3.13;;
71462;SDS011;59266;52.608;13.260;2023-06-22T10:38:58;6.70;;;3.42;;
71462;SDS011;59266;52.608;13.260;2023-06-22T10:41:26;6.80;;;3.10;;
71462;SDS011;59266;52.608;13.260;2023-06-22T10:43:55;6.35;;;3.10;;
71462;SDS011;59266;52.608;13.260;2023-06-22T10:46:23;6.68;;;3.10;;
71462;SDS011;59266;52.608;13.260;2023-06-22T10:48:51;7.18;;;3.22;;
71462;SDS011;59266;52.608;13.260;2023-06-22T10:51:20;7.45;;;3.35;;
71462;SDS011;59266;52.608;13.260;2023-06-22T10:53:48;8.32;;;3.55;;
71462;SDS011;59266;52.608;13.260;2023-06-22T10:56:16;7.20;;;3.25;;
71462;SDS011;59266;52.608;13.260;2023-06-22T10:58:44;8.00;;;3.60;;
71462;SDS011;59266;52.608;13.260;2023-06-22T11:01:12;6.18;;;3.15;;
71462;SDS011;59266;52.608;13.260;2023-06-22T11:03:59;7.13;;;3.35;;
71462;SDS011;59266;52.608;13.260;2023-06-22T11:06:27;7.18;;;3.53;;
71462;SDS011;59266;52.608;13.260;2023-06-22T11:08:55;7.85;;;3.42;;
71462;SDS011;59266;52.608;13.260;2023-06-22T11:11:37;7.30;;;3.22;;
71462;SDS011;59266;52.608;13.260;2023-06-22T11:14:04;6.63;;;3.08;;
71462;SDS011;59266;52.608;13.260;2023-06-22T11:16:31;9.27;;;3.30;;
71462;SDS011;59266;52.608;13.260;2023-06-22T11:19:00;6.40;;;3.35;;
71462;SDS011;59266;52.608;13.260;2023-06-22T11:21:29;7.85;;;3.00;;
71462;SDS011;59266;52.608;13.260;2023-06-22T11:23:57;5.95;;;3.28;;
71462;SDS011;59266;52.608;13.260;2023-06-22T11:26:30;7.25;;;3.45;;
71462;SDS011;59266;52.608;13.260;2023-06-22T11:29:02;7.63;;;3.45;;
71462;SDS011;59266;52.608;13.260;2023-06-22T11:31:34;9.02;;;3.78;;
71462;SDS011;59266;52.608;13.260;2023-06-22T11:34:02;6.78;;;3.55;;
71462;SDS011;59266;52.608;13.260;2023-06-22T11:36:29;7.20;;;3.75;;
71462;SDS011;59266;52.608;13.260;2023-06-22T11:38:59;6.75;;;3.22;;
71462;SDS011;59266;52.608;13.260;2023-06-22T11:41:26;6.60;;;3.42;;
71462;SDS011;59266;52.608;13.260;2023-06-22T11:43:53;6.95;;;3.60;;
71462;SDS011;59266;52.608;13.260;2023-06-22T11:46:20;7.22;;;3.53;;
71462;SDS011;59266;52.608;13.260;2023-06-22T11:48:47;10.13;;;3.40;;
71462;SDS011;59266;52.608;13.260;2023-06-22T11:51:15;5.72;;;2.95;;
71462;SDS011;59266;52.608;13.260;2023-06-22T11:53:42;6.35;;;3.30;;
71462;SDS011;59266;52.608;13.260;2023-06-22T11:56:09;6.82;;;3.28;;
71462;SDS011;59266;52.608;13.260;2023-06-22T11:58:38;9.85;;;3.45;;
71462;SDS011;59266;52.608;13.260;2023-06-22T12:01:06;7.60;;;3.40;;
71462;SDS011;59266;52.608;13.260;2023-06-22T12:03:33;8.15;;;3.50;;
71462;SDS011;59266;52.608;13.260;2023-06-22T12:06:05;6.32;;;3.50;;
71462;SDS011;59266;52.608;13.260;2023-06-22T12:08:34;6.78;;;3.83;;
71462;SDS011;59266;52.608;13.260;2023-06-22T12:11:02;7.28;;;3.35;;
71462;SDS011;59266;52.608;13.260;2023-06-22T12:13:28;6.75;;;3.35;;
71462;SDS011;59266;52.608;13.260;2023-06-22T12:15:55;7.00;;;3.60;;
71462;SDS011;59266;52.608;13.260;2023-06-22T12:18:22;7.82;;;3.45;;
71462;SDS011;59266;52.608;13.260;2023-06-22T12:20:49;8.00;;;3.50;;
71462;SDS011;59266;52.608;13.260;2023-06-22T12:23:16;6.07;;;3.00;;
71462;SDS011;59266;52.608;13.260;2023-06-22T12:25:44;6.55;;;3.42;;
71462;SDS011;59266;52.608;13.260;2023-06-22T12:28:14;7.25;;;3.80;;
71462;SDS011;59266;52.608;13.260;2023-06-22T12:30:41;8.55;;;3.67;;
71462;SDS011;59266;52.608;13.260;2023-06-22T12:33:09;6.70;;;3.60;;
71462;SDS011;59266;52.608;13.260;2023-06-22T12:35:36;5.75;;;3.28;;
71462;SDS011;59266;52.608;13.260;2023-06-22T12:38:03;7.10;;;3.83;;
71462;SDS011;59266;52.608;13.260;2023-06-22T12:40:32;9.85;;;3.42;;
71462;SDS011;59266;52.608;13.260;2023-06-22T12:43:01;6.60;;;3.75;;
71462;SDS011;59266;52.608;13.260;2023-06-22T12:45:29;7.38;;;3.70;;
71462;SDS011;59266;52.608;13.260;2023-06-22T12:47:58;7.03;;;3.60;;
71462;SDS011;59266;52.608;13.260;2023-06-22T12:50:26;7.55;;;3.70;;
71462;SDS011;59266;52.608;13.260;2023-06-22T12:52:54;7.47;;;3.25;;
71462;SDS011;59266;52.608;13.260;2023-06-22T12:55:21;7.22;;;3.50;;
71462;SDS011;59266;52.608;13.260;2023-06-22T12:57:47;6.65;;;3.85;;
71462;SDS011;59266;52.608;13.260;2023-06-22T13:00:16;7.47;;;4.00;;
71462;SDS011;59266;52.608;13.260;2023-06-22T13:02:43;7.43;;;3.80;;
71462;SDS011;59266;52.608;13.260;2023-06-22T13:05:10;7.68;;;3.80;;
71462;SDS011;59266;52.608;13.260;2023-06-22T13:07:37;7.13;;;4.10;;
71462;SDS011;59266;52.608;13.260;2023-06-22T13:10:04;6.82;;;3.72;;
71462;SDS011;59266;52.608;13.260;2023-06-22T13:12:31;9.27;;;3.85;;
71462;SDS011;59266;52.608;13.260;2023-06-22T13:14:58;10.32;;;3.78;;
71462;SDS011;59266;52.608;13.260;2023-06-22T13:17:26;7.43;;;4.10;;
71462;SDS011;59266;52.608;13.260;2023-06-22T13:19:54;7.13;;;3.40;;
71462;SDS011;59266;52.608;13.260;2023-06-22T13:22:30;8.15;;;3.55;;
71462;SDS011;59266;52.608;13.260;2023-06-22T13:24:58;6.88;;;3.50;;
71462;SDS011;59266;52.608;13.260;2023-06-22T13:27:26;6.75;;;3.97;;
71462;SDS011;59266;52.608;13.260;2023-06-22T13:29:55;6.60;;;3.42;;
71462;SDS011;59266;52.608;13.260;2023-06-22T13:32:32;8.55;;;3.55;;
71462;SDS011;59266;52.608;13.260;2023-06-22T13:36:00;6.82;;;3.75;;
71462;SDS011;59266;52.608;13.260;2023-06-22T13:38:29;7.93;;;4.00;;
71462;SDS011;59266;52.608;13.260;2023-06-22T13:40:58;7.97;;;4.20;;
71462;SDS011;59266;52.608;13.260;2023-06-22T13:43:27;6.95;;;3.67;;
71462;SDS011;59266;52.608;13.260;2023-06-22T13:45:54;9.00;;;3.95;;
71462;SDS011;59266;52.608;13.260;2023-06-22T13:48:24;9.60;;;4.25;;
71462;SDS011;59266;52.608;13.260;2023-06-22T13:50:52;8.52;;;3.97;;
71462;SDS011;59266;52.608;13.260;2023-06-22T13:53:19;7.85;;;4.22;;
71462;SDS011;59266;52.608;13.260;2023-06-22T13:55:50;8.02;;;4.07;;
71462;SDS011;59266;52.608;13.260;2023-06-22T13:58:17;8.88;;;4.70;;
71462;SDS011;59266;52.608;13.260;2023-06-22T14:00:47;7.00;;;4.63;;
71462;SDS011;59266;52.608;13.260;2023-06-22T14:03:15;7.55;;;4.30;;
71462;SDS011;59266;52.608;13.260;2023-06-22T14:05:43;7.65;;;4.10;;
71462;SDS011;59266;52.608;13.260;2023-06-22T14:08:11;7.15;;;3.78;;
71462;SDS011;59266;52.608;13.260;2023-06-22T14:10:58;7.32;;;4.22;;
71462;SDS011;59266;52.608;13.260;2023-06-22T14:13:32;8.68;;;4.50;;
71462;SDS011;59266;52.608;13.260;2023-06-22T14:15:59;7.78;;;4.13;;
71462;SDS011;59266;52.608;13.260;2023-06-22T14:18:30;8.35;;;4.32;;
71462;SDS011;59266;52.608;13.260;2023-06-22T14:20:57;7.15;;;4.25;;
71462;SDS011;59266;52.608;13.260;2023-06-22T14:25:54;6.78;;;4.13;;
71462;SDS011;59266;52.608;13.260;2023-06-22T14:28:24;8.52;;;4.32;;
71462;SDS011;59266;52.608;13.260;2023-06-22T14:30:55;7.78;;;4.05;;
71462;SDS011;59266;52.608;13.260;2023-06-22T14:33:26;10.25;;;4.07;;
71462;SDS011;59266;52.608;13.260;2023-06-22T14:35:55;9.32;;;4.25;;
71462;SDS011;59266;52.608;13.260;2023-06-22T14:38:23;7.32;;;4.15;;
71462;SDS011;59266;52.608;13.260;2023-06-22T14:40:51;6.68;;;3.95;;
71462;SDS011;59266;52.608;13.260;2023-06-22T14:43:38;7.72;;;4.13;;
71462;SDS011;59266;52.608;13.260;2023-06-22T14:46:05;9.27;;;4.32;;
71462;SDS011;59266;52.608;13.260;2023-06-22T14:48:34;7.22;;;3.78;;